Time;durP1;ratioP1;P1;durP2;ratioP2;P2;SDS_P1;SDS_P2;PMS_P1;PMS_P2;Temp;Humidity;BMP_temperature;BMP_pressure;BME280_temperature;BME280_humidity;BME280_pressure;Samples;Min_cycle;Max_cycle;Signal;HPM_P1;HPM_P2
2023/06/10 00:01:27;;;;;;;8.30;4.25;;;20.80;97.00;;;;;;4990357;28;20268;-81
2023/06/10 00:03:54;;;;;;;5.05;3.65;;;20.80;97.00;;;;;;4990718;28;20210;-80
2023/06/10 00:06:24;;;;;;;6.82;4.10;;;20.80;97.00;;;;;;5002784;28;20248;-81
2023/06/10 00:08:51;;;;;;;5.22;4.10;;;20.70;97.20;;;;;;5009577;28;20767;-81
2023/06/10 00:11:18;;;;;;;5.95;3.60;;;20.70;97.60;;;;;;4999969;28;20206;-81
2023/06/10 00:13:45;;;;;;;6.85;3.88;;;20.60;97.50;;;;;;4990047;28;20260;-81
2023/06/10 00:16:13;;;;;;;4.68;3.70;;;20.60;97.60;;;;;;4990070;28;20261;-81
2023/06/10 00:18:40;;;;;;;8.33;4.50;;;20.70;97.60;;;;;;4990118;28;21090;-77
2023/06/10 00:21:07;;;;;;;5.57;4.45;;;20.60;97.60;;;;;;4990010;28;20916;-82
2023/06/10 00:23:37;;;;;;;7.43;4.00;;;20.60;97.90;;;;;;4989972;28;20207;-81
2023/06/10 00:26:04;;;;;;;5.22;3.78;;;20.60;97.90;;;;;;4989949;28;20704;-80
2023/06/10 00:28:31;;;;;;;5.28;4.22;;;20.60;97.90;;;;;;4990488;28;20213;-79
2023/06/10 00:30:58;;;;;;;7.10;4.13;;;20.60;98.00;;;;;;4989798;28;20228;-79
2023/06/10 00:33:26;;;;;;;7.63;4.85;;;20.60;98.10;;;;;;4990159;28;20206;-79
2023/06/10 00:35:53;;;;;;;7.67;4.57;;;20.60;98.10;;;;;;4990160;28;20609;-80
2023/06/10 00:38:20;;;;;;;9.15;4.00;;;20.60;98.40;;;;;;4989891;28;20724;-80
2023/06/10 00:40:47;;;;;;;4.83;4.00;;;20.40;98.30;;;;;;4989738;28;20202;-79
2023/06/10 00:43:14;;;;;;;8.35;3.92;;;20.40;98.40;;;;;;4990301;28;20289;-79
2023/06/10 00:45:41;;;;;;;5.25;3.67;;;20.30;98.50;;;;;;4989704;28;20327;-79
2023/06/10 00:48:08;;;;;;;7.13;4.20;;;20.30;98.50;;;;;;4989326;28;20214;-79
2023/06/10 00:50:39;;;;;;;8.10;4.10;;;20.40;98.60;;;;;;4989391;28;20296;-79
2023/06/10 00:53:06;;;;;;;5.77;4.03;;;20.40;98.60;;;;;;4988840;28;20452;-78
2023/06/10 00:55:33;;;;;;;6.37;4.10;;;20.40;98.60;;;;;;5001078;28;20232;-79
2023/06/10 00:58:01;;;;;;;6.53;3.60;;;20.30;98.60;;;;;;5008787;28;20794;-77
2023/06/10 01:00:28;;;;;;;9.40;4.53;;;20.30;98.60;;;;;;5009289;28;20213;-77
2023/06/10 01:02:55;;;;;;;7.28;3.80;;;20.30;98.60;;;;;;4991715;28;20705;-77
2023/06/10 01:05:22;;;;;;;6.17;4.00;;;20.30;98.60;;;;;;4989304;28;20690;-78
2023/06/10 01:07:58;;;;;;;8.30;3.60;;;20.20;98.60;;;;;;4989015;28;20220;-77
2023/06/10 01:10:31;;;;;;;7.15;3.83;;;20.20;98.60;;;;;;4988435;28;20826;-78
2023/06/10 01:13:02;;;;;;;6.30;3.55;;;20.20;98.70;;;;;;4989233;28;20539;-78
2023/06/10 01:15:29;;;;;;;7.63;3.95;;;20.20;98.70;;;;;;4989215;28;20233;-77
2023/06/10 01:17:59;;;;;;;6.40;3.90;;;20.20;98.70;;;;;;4989768;28;20245;-80
2023/06/10 01:20:27;;;;;;;9.13;3.50;;;20.10;98.80;;;;;;4989776;28;20206;-80
2023/06/10 01:22:57;;;;;;;4.20;3.57;;;20.10;98.90;;;;;;4989000;28;20210;-77
2023/06/10 01:25:27;;;;;;;5.97;4.07;;;20.10;99.00;;;;;;4978421;28;20230;-77
2023/06/10 01:27:59;;;;;;;6.00;3.63;;;20.10;99.00;;;;;;4969694;28;20237;-76
2023/06/10 01:30:30;;;;;;;5.03;3.90;;;20.10;98.90;;;;;;4988369;28;20265;-77
2023/06/10 01:33:00;;;;;;;7.37;4.20;;;20.10;99.00;;;;;;4988250;28;20202;-77
2023/06/10 01:35:29;;;;;;;6.35;3.90;;;20.10;99.10;;;;;;4988285;28;20332;-76
2023/06/10 01:37:59;;;;;;;9.68;3.88;;;20.00;99.10;;;;;;4980289;28;20202;-77
2023/06/10 01:40:27;;;;;;;6.43;4.28;;;19.80;99.50;;;;;;4988293;28;20253;-77
2023/06/10 01:42:54;;;;;;;7.88;3.83;;;19.90;99.60;;;;;;4988133;28;21223;-75
2023/06/10 01:45:21;;;;;;;7.37;3.70;;;19.80;99.90;;;;;;4988130;28;20612;-77
2023/06/10 01:47:48;;;;;;;9.03;3.80;;;19.80;99.60;;;;;;4988222;28;20241;-76
2023/06/10 01:50:16;;;;;;;6.93;4.00;;;19.80;99.80;;;;;;4988290;28;20226;-77
2023/06/10 01:52:43;;;;;;;9.73;4.07;;;19.60;99.90;;;;;;4988129;28;20261;-80
2023/06/10 01:55:11;;;;;;;5.47;4.03;;;19.70;99.90;;;;;;4988360;28;20833;-81
2023/06/10 01:57:38;;;;;;;8.40;4.43;;;19.70;99.90;;;;;;4988615;28;20301;-81
2023/06/10 02:00:06;;;;;;;6.60;3.90;;;19.70;99.90;;;;;;4988073;28;20691;-81
2023/06/10 02:02:33;;;;;;;8.43;4.33;;;19.70;99.90;;;;;;4987944;28;20669;-82
2023/06/10 02:05:00;;;;;;;7.03;4.03;;;19.60;99.90;;;;;;4988039;28;20202;-81
2023/06/10 02:07:27;;;;;;;7.80;4.00;;;19.70;99.90;;;;;;4988240;28;20241;-81
2023/06/10 02:09:53;;;;;;;5.37;4.00;;;19.70;99.90;;;;;;4987592;28;20241;-82
2023/06/10 02:12:22;;;;;;;7.63;3.90;;;19.60;99.90;;;;;;4988034;28;20748;-82
2023/06/10 02:14:48;;;;;;;8.27;3.87;;;19.70;99.90;;;;;;4987956;28;20297;-82
2023/06/10 02:17:15;;;;;;;7.33;4.23;;;19.60;99.90;;;;;;4987813;28;20777;-82
2023/06/10 02:19:43;;;;;;;5.70;4.07;;;19.60;99.90;;;;;;4987428;28;20214;-82
2023/06/10 02:22:10;;;;;;;8.53;4.20;;;19.60;99.90;;;;;;4987991;28;20206;-81
2023/06/10 02:24:37;;;;;;;7.77;3.63;;;19.60;99.90;;;;;;4987246;28;20221;-79
2023/06/10 02:27:07;;;;;;;7.07;3.77;;;19.60;99.90;;;;;;4987740;28;20230;-79
2023/06/10 02:29:36;;;;;;;7.47;3.70;;;19.60;99.90;;;;;;4987525;28;20213;-77
2023/06/10 02:32:03;;;;;;;5.90;3.60;;;19.60;99.90;;;;;;4986850;28;20222;-77
2023/06/10 02:34:30;;;;;;;6.30;4.10;;;19.60;99.90;;;;;;4986812;28;20296;-79
2023/06/10 02:36:57;;;;;;;7.80;4.53;;;19.60;99.90;;;;;;4987494;28;20314;-78
2023/06/10 02:39:25;;;;;;;6.53;4.30;;;19.50;99.90;;;;;;4987848;28;20214;-78
2023/06/10 02:41:52;;;;;;;6.43;3.83;;;19.40;99.90;;;;;;4986865;28;20237;-79
2023/06/10 02:44:19;;;;;;;7.53;3.73;;;19.20;99.90;;;;;;4987213;28;20209;-78
2023/06/10 02:46:47;;;;;;;6.23;4.00;;;19.10;99.90;;;;;;4986638;28;20234;-78
2023/06/10 02:49:14;;;;;;;8.00;3.97;;;19.20;99.90;;;;;;4986899;28;20650;-78
2023/06/10 02:51:41;;;;;;;7.03;4.03;;;19.20;99.90;;;;;;4986853;28;20210;-78
2023/06/10 02:54:08;;;;;;;6.20;4.40;;;19.20;99.90;;;;;;4987073;28;20523;-78
2023/06/10 02:56:36;;;;;;;5.93;3.80;;;19.20;99.90;;;;;;5006597;28;20605;-79
2023/06/10 02:59:03;;;;;;;9.37;4.03;;;19.20;99.90;;;;;;5006333;28;20312;-78
2023/06/10 03:01:31;;;;;;;4.10;3.40;;;19.10;99.90;;;;;;4991987;28;20209;-79
2023/06/10 03:03:59;;;;;;;5.23;3.63;;;19.10;99.90;;;;;;4986697;28;20244;-80
2023/06/10 03:06:26;;;;;;;9.00;4.07;;;19.10;99.90;;;;;;4986759;28;20240;-79
2023/06/10 03:08:53;;;;;;;7.67;4.30;;;19.20;99.90;;;;;;4986764;28;20249;-78
2023/06/10 03:11:20;;;;;;;7.40;4.07;;;19.20;99.90;;;;;;4987184;28;20213;-78
2023/06/10 03:13:47;;;;;;;4.83;4.00;;;19.20;99.90;;;;;;4986432;28;20301;-79
2023/06/10 03:16:14;;;;;;;5.17;3.90;;;19.10;99.90;;;;;;4987124;28;20221;-80
2023/06/10 03:18:41;;;;;;;6.67;4.10;;;19.10;99.90;;;;;;4986634;28;20241;-79
2023/06/10 03:21:09;;;;;;;6.23;3.90;;;19.10;99.90;;;;;;4987002;28;20297;-78
2023/06/10 03:23:36;;;;;;;8.90;3.80;;;19.10;99.90;;;;;;4986792;28;20213;-79
2023/06/10 03:26:04;;;;;;;10.10;4.17;;;19.10;99.90;;;;;;5002417;28;20260;-74
2023/06/10 03:28:31;;;;;;;11.63;3.90;;;19.20;99.90;;;;;;5006741;28;20231;-78
2023/06/10 03:30:58;;;;;;;5.73;4.13;;;19.20;99.90;;;;;;5006357;28;20233;-76
2023/06/10 03:33:26;;;;;;;7.53;4.23;;;19.20;99.90;;;;;;5009066;28;20272;-76
2023/06/10 03:35:53;;;;;;;6.50;4.10;;;19.10;99.90;;;;;;5006298;28;20212;-76
2023/06/10 03:38:21;;;;;;;5.77;3.83;;;19.10;99.90;;;;;;4990439;28;20210;-76
2023/06/10 03:40:48;;;;;;;7.00;4.07;;;19.10;99.90;;;;;;4989925;28;20210;-76
2023/06/10 03:43:15;;;;;;;6.73;3.67;;;19.10;99.90;;;;;;4990229;28;20763;-80
2023/06/10 03:45:42;;;;;;;8.07;4.07;;;19.10;99.90;;;;;;4990381;28;20316;-80
2023/06/10 03:48:09;;;;;;;6.83;3.97;;;19.10;99.90;;;;;;4990130;28;20234;-80
2023/06/10 03:50:36;;;;;;;8.63;4.37;;;19.10;99.90;;;;;;4989849;28;20214;-80
2023/06/10 03:53:03;;;;;;;5.53;3.97;;;19.00;99.90;;;;;;4990129;28;20246;-81
2023/06/10 03:55:32;;;;;;;10.33;4.30;;;19.00;99.90;;;;;;4990660;28;20214;-81
2023/06/10 03:57:59;;;;;;;7.83;4.03;;;19.00;99.90;;;;;;4998012;28;20209;-79
2023/06/10 04:00:26;;;;;;;8.97;4.30;;;19.00;99.90;;;;;;4993896;28;20214;-79
2023/06/10 04:02:52;;;;;;;7.43;4.30;;;18.90;99.90;;;;;;4989968;28;20301;-78
2023/06/10 04:05:21;;;;;;;7.13;4.30;;;18.80;99.90;;;;;;4990058;28;20634;-76
2023/06/10 04:07:49;;;;;;;10.93;5.03;;;18.90;99.90;;;;;;4990141;28;20237;-77
2023/06/10 04:10:16;;;;;;;6.87;4.30;;;18.90;99.90;;;;;;4990601;28;20218;-78
2023/06/10 04:12:45;;;;;;;6.97;4.33;;;18.90;99.90;;;;;;4990017;28;20212;-78
2023/06/10 04:15:13;;;;;;;8.47;4.10;;;18.90;99.90;;;;;;4989787;28;20304;-78
2023/06/10 04:17:42;;;;;;;5.57;3.93;;;18.90;99.90;;;;;;4989968;28;20252;-77
2023/06/10 04:20:10;;;;;;;5.90;4.50;;;18.90;99.90;;;;;;4990003;28;20210;-76
2023/06/10 04:22:37;;;;;;;8.63;4.37;;;18.80;99.90;;;;;;4989309;28;20366;-77
2023/06/10 04:25:04;;;;;;;9.17;4.73;;;18.90;99.90;;;;;;4989186;28;20635;-77
2023/06/10 04:27:31;;;;;;;6.93;4.37;;;18.90;99.90;;;;;;4988950;28;20346;-76
2023/06/10 04:29:59;;;;;;;6.90;4.17;;;19.00;99.90;;;;;;4988958;28;20233;-77
2023/06/10 04:32:26;;;;;;;4.67;4.20;;;19.00;99.90;;;;;;4988961;28;20268;-77
2023/06/10 04:34:53;;;;;;;7.23;4.23;;;19.00;99.90;;;;;;4989332;28;20223;-77
2023/06/10 04:37:20;;;;;;;4.97;3.97;;;19.00;99.90;;;;;;4988800;28;20300;-77
2023/06/10 04:39:48;;;;;;;5.43;4.10;;;19.00;99.90;;;;;;4990178;28;20586;-77
2023/06/10 04:42:15;;;;;;;7.97;4.87;;;18.90;99.90;;;;;;4989890;28;20301;-77
2023/06/10 04:44:42;;;;;;;7.47;4.47;;;18.90;99.90;;;;;;4989094;28;20228;-77
2023/06/10 04:47:11;;;;;;;9.63;4.70;;;18.90;99.90;;;;;;4989154;28;20324;-77
2023/06/10 04:49:37;;;;;;;6.93;4.83;;;19.00;99.90;;;;;;4988746;28;20305;-77
2023/06/10 04:52:05;;;;;;;6.53;4.60;;;19.00;99.90;;;;;;4989213;28;20777;-77
2023/06/10 04:54:32;;;;;;;6.57;4.30;;;19.00;99.90;;;;;;4996849;28;20224;-78
2023/06/10 04:56:59;;;;;;;11.50;4.80;;;18.80;99.90;;;;;;4989155;28;20538;-77
2023/06/10 04:59:26;;;;;;;8.30;5.17;;;18.90;99.90;;;;;;4994338;28;20209;-77
2023/06/10 05:01:54;;;;;;;10.53;4.90;;;18.80;99.90;;;;;;4988475;28;20212;-76
2023/06/10 05:04:22;;;;;;;6.57;4.73;;;18.80;99.90;;;;;;4987952;28;20220;-75
2023/06/10 05:06:49;;;;;;;8.07;4.83;;;18.90;99.90;;;;;;4988057;28;20733;-75
2023/06/10 05:09:16;;;;;;;7.17;4.70;;;19.00;99.90;;;;;;4988624;28;20214;-76
2023/06/10 05:11:44;;;;;;;7.23;4.90;;;19.00;99.90;;;;;;4988209;28;20209;-76
2023/06/10 05:14:11;;;;;;;9.00;4.97;;;19.10;99.90;;;;;;4986545;28;20206;-75
2023/06/10 05:16:38;;;;;;;5.37;4.63;;;19.20;99.90;;;;;;4986686;28;20747;-75
2023/06/10 05:19:05;;;;;;;5.37;4.70;;;19.20;99.90;;;;;;4987113;28;20687;-75
2023/06/10 05:21:33;;;;;;;11.00;4.90;;;19.20;99.90;;;;;;4987308;28;20332;-75
2023/06/10 05:24:00;;;;;;;9.27;4.87;;;19.10;99.90;;;;;;4980561;28;20208;-75
2023/06/10 05:26:28;;;;;;;5.87;5.17;;;19.10;99.90;;;;;;4987059;28;20599;-75
2023/06/10 05:28:56;;;;;;;6.33;4.93;;;19.00;99.90;;;;;;4986836;28;20210;-75
2023/06/10 05:31:23;;;;;;;6.13;5.00;;;19.10;99.90;;;;;;4985732;28;20222;-74
2023/06/10 05:33:50;;;;;;;7.20;4.63;;;19.20;99.90;;;;;;4986190;28;20301;-74
2023/06/10 05:36:17;;;;;;;6.47;5.13;;;19.20;99.90;;;;;;4985489;28;20748;-75
2023/06/10 05:38:45;;;;;;;10.00;5.10;;;19.30;99.90;;;;;;4985719;28;20214;-75
2023/06/10 05:41:12;;;;;;;5.57;4.90;;;19.40;99.90;;;;;;4986252;28;20213;-75
2023/06/10 05:43:39;;;;;;;6.13;4.83;;;19.40;99.90;;;;;;4986083;28;20653;-75
2023/06/10 05:46:06;;;;;;;8.33;5.53;;;19.50;99.90;;;;;;4986370;28;20412;-75
2023/06/10 05:48:33;;;;;;;7.00;5.00;;;19.20;99.90;;;;;;4985909;28;20230;-75
2023/06/10 05:51:01;;;;;;;6.10;5.50;;;19.30;99.90;;;;;;4985973;28;20661;-75
2023/06/10 05:53:27;;;;;;;9.13;5.33;;;19.30;99.90;;;;;;4986018;28;20250;-75
2023/06/10 05:55:57;;;;;;;19.27;6.27;;;19.30;99.90;;;;;;4985263;28;20679;-75
2023/06/10 05:58:24;;;;;;;12.17;5.33;;;19.40;99.90;;;;;;4986372;28;20206;-75
2023/06/10 06:00:51;;;;;;;9.03;5.37;;;19.40;99.90;;;;;;4985268;28;20210;-75
2023/06/10 06:03:19;;;;;;;18.67;6.40;;;19.40;99.90;;;;;;4985799;28;20210;-75
2023/06/10 06:05:46;;;;;;;8.60;5.43;;;19.40;99.90;;;;;;4985362;28;20233;-76
2023/06/10 06:08:17;;;;;;;6.80;5.60;;;19.40;99.90;;;;;;4985914;28;20257;-75
2023/06/10 06:10:44;;;;;;;9.43;5.20;;;19.40;99.90;;;;;;4985631;28;20573;-75
2023/06/10 06:13:12;;;;;;;7.90;5.07;;;19.40;99.90;;;;;;4985452;28;20292;-74
2023/06/10 06:15:39;;;;;;;9.03;5.57;;;19.50;99.90;;;;;;4985250;28;20213;-75
2023/06/10 06:18:06;;;;;;;8.27;5.43;;;19.40;99.90;;;;;;4985105;28;20258;-73
2023/06/10 06:20:33;;;;;;;11.17;5.50;;;19.40;99.90;;;;;;4985005;28;20202;-75
2023/06/10 06:23:00;;;;;;;7.57;5.47;;;19.50;99.90;;;;;;4984918;28;20573;-74
2023/06/10 06:25:27;;;;;;;11.37;5.73;;;19.50;99.90;;;;;;4985100;28;20225;-73
2023/06/10 06:27:54;;;;;;;12.53;5.73;;;19.50;99.90;;;;;;4985150;28;20266;-74
2023/06/10 06:30:22;;;;;;;7.70;5.60;;;19.70;99.90;;;;;;4985396;28;20583;-74
2023/06/10 06:32:49;;;;;;;8.73;5.20;;;19.80;99.90;;;;;;4985327;28;20923;-75
2023/06/10 06:35:16;;;;;;;6.80;5.00;;;19.90;99.90;;;;;;4985350;28;20208;-75
2023/06/10 06:37:43;;;;;;;8.37;5.63;;;20.10;99.90;;;;;;4985225;28;20230;-75
2023/06/10 06:40:11;;;;;;;6.00;5.40;;;20.20;99.90;;;;;;4985147;28;20206;-74
2023/06/10 06:42:37;;;;;;;10.50;5.67;;;20.20;99.90;;;;;;4985209;28;20707;-75
2023/06/10 06:45:05;;;;;;;8.83;5.93;;;20.40;99.90;;;;;;4975655;28;20688;-75
2023/06/10 06:47:33;;;;;;;11.48;5.50;;;20.50;99.90;;;;;;4994341;28;20272;-74
2023/06/10 06:50:00;;;;;;;6.25;5.65;;;20.50;99.90;;;;;;4984548;28;20194;-74
2023/06/10 06:52:27;;;;;;;8.52;6.22;;;20.60;99.90;;;;;;4991334;28;20618;-74
2023/06/10 06:54:54;;;;;;;6.18;5.30;;;20.70;99.90;;;;;;4985030;28;20630;-74
2023/06/10 06:57:23;;;;;;;8.90;5.32;;;20.70;99.90;;;;;;4985808;28;20210;-75
2023/06/10 06:59:49;;;;;;;6.75;5.38;;;20.80;99.90;;;;;;4985605;28;20210;-74
2023/06/10 07:02:16;;;;;;;7.60;5.38;;;20.90;99.90;;;;;;4985747;28;20296;-74
2023/06/10 07:04:45;;;;;;;9.27;5.90;;;20.90;99.90;;;;;;4985303;28;20289;-74
2023/06/10 07:07:12;;;;;;;7.38;5.65;;;21.10;99.90;;;;;;4986439;28;20206;-74
2023/06/10 07:09:39;;;;;;;6.85;5.40;;;21.20;99.90;;;;;;4986595;28;20272;-74
2023/06/10 07:12:07;;;;;;;8.07;5.45;;;21.20;99.90;;;;;;4986595;28;20210;-74
2023/06/10 07:14:34;;;;;;;5.97;5.38;;;21.30;99.90;;;;;;4986413;28;20288;-74
2023/06/10 07:17:01;;;;;;;8.52;5.47;;;21.40;99.90;;;;;;4986192;28;20294;-74
2023/06/10 07:19:28;;;;;;;19.27;6.72;;;21.40;99.90;;;;;;4986559;28;20208;-74
2023/06/10 07:21:57;;;;;;;10.07;6.03;;;21.30;99.90;;;;;;4986600;28;20210;-74
2023/06/10 07:24:24;;;;;;;7.70;5.47;;;21.40;99.90;;;;;;4986265;28;20294;-74
2023/06/10 07:26:51;;;;;;;6.05;5.55;;;21.40;99.90;;;;;;4986294;28;20210;-74
2023/06/10 07:29:18;;;;;;;10.88;5.75;;;21.40;99.90;;;;;;4985622;28;20238;-74
2023/06/10 07:31:45;;;;;;;9.98;5.93;;;21.40;99.90;;;;;;4985763;28;20678;-75
2023/06/10 07:34:12;;;;;;;9.38;6.03;;;21.50;99.90;;;;;;4986176;28;20202;-74
2023/06/10 07:36:39;;;;;;;9.93;6.07;;;21.40;99.90;;;;;;4986138;28;20304;-75
2023/06/10 07:39:10;;;;;;;9.55;5.57;;;21.40;99.90;;;;;;4986666;28;20236;-74
2023/06/10 07:41:37;;;;;;;10.77;6.07;;;21.50;99.90;;;;;;4985667;28;20202;-74
2023/06/10 07:44:04;;;;;;;6.35;5.60;;;21.50;99.90;;;;;;4998992;28;20228;-74
2023/06/10 07:46:31;;;;;;;9.00;5.88;;;21.60;99.90;;;;;;4986413;28;20214;-75
2023/06/10 07:48:58;;;;;;;12.00;6.05;;;21.70;99.90;;;;;;4986173;28;20236;-74
2023/06/10 07:51:24;;;;;;;29.50;8.35;;;21.70;99.90;;;;;;4985784;28;20292;-74
2023/06/10 07:53:51;;;;;;;14.70;6.53;;;21.70;99.90;;;;;;4985734;28;20202;-74
2023/06/10 07:56:21;;;;;;;71.97;10.85;;;21.90;99.90;;;;;;4986053;28;20306;-74
2023/06/10 07:58:48;;;;;;;11.55;6.25;;;22.00;99.90;;;;;;4986223;28;20202;-74
2023/06/10 08:01:15;;;;;;;9.13;6.13;;;22.10;99.90;;;;;;4986169;28;20293;-74
2023/06/10 08:03:42;;;;;;;11.23;5.90;;;22.20;99.90;;;;;;4985833;28;20213;-74
2023/06/10 08:06:11;;;;;;;8.93;5.80;;;22.20;99.90;;;;;;4971037;28;20300;-74
2023/06/10 08:08:41;;;;;;;20.35;7.70;;;22.30;99.90;;;;;;4985968;28;20766;-75
2023/06/10 08:11:08;;;;;;;10.55;6.13;;;22.30;99.90;;;;;;4986051;28;20198;-74
2023/06/10 08:13:36;;;;;;;15.05;5.70;;;22.40;99.90;;;;;;4986035;28;20313;-74
2023/06/10 08:16:04;;;;;;;9.35;6.00;;;22.50;99.90;;;;;;4985712;28;20296;-74
2023/06/10 08:18:30;;;;;;;9.93;5.57;;;22.60;99.90;;;;;;4987145;28;20293;-74
2023/06/10 08:20:57;;;;;;;6.10;5.50;;;22.60;99.90;;;;;;4989868;28;20237;-74
2023/06/10 08:23:24;;;;;;;10.00;6.18;;;22.70;99.90;;;;;;4989284;28;20249;-74
2023/06/10 08:25:52;;;;;;;9.18;5.90;;;22.80;99.90;;;;;;5003419;28;20241;-74
2023/06/10 08:28:19;;;;;;;10.18;6.03;;;22.80;99.90;;;;;;5004427;28;20586;-74
2023/06/10 08:30:47;;;;;;;21.02;7.05;;;22.90;99.90;;;;;;4989153;28;20234;-72
2023/06/10 08:33:14;;;;;;;9.02;6.13;;;22.90;99.90;;;;;;4988606;28;20206;-71
2023/06/10 08:35:41;;;;;;;23.58;7.25;;;23.00;99.90;;;;;;4989306;28;20234;-72
2023/06/10 08:38:08;;;;;;;14.40;6.07;;;23.10;99.90;;;;;;4989717;28;20309;-71
2023/06/10 08:40:35;;;;;;;10.65;6.32;;;23.20;99.90;;;;;;5001898;28;20206;-72
2023/06/10 08:43:07;;;;;;;8.98;6.20;;;23.30;99.90;;;;;;4989251;28;20296;-71
2023/06/10 08:45:36;;;;;;;7.00;5.30;;;23.50;99.90;;;;;;4984929;28;20290;-72
2023/06/10 08:48:07;;;;;;;13.75;6.35;;;23.60;99.90;;;;;;4969644;28;20230;-72
2023/06/10 08:50:36;;;;;;;11.50;6.10;;;23.70;99.90;;;;;;4974980;28;20198;-71
2023/06/10 08:53:04;;;;;;;7.18;5.50;;;23.80;99.90;;;;;;4988749;28;20764;-71
2023/06/10 08:55:33;;;;;;;10.13;5.85;;;23.80;99.90;;;;;;4988642;28;20305;-71
2023/06/10 08:58:00;;;;;;;11.45;6.15;;;23.80;99.90;;;;;;4989231;28;20253;-71
2023/06/10 09:00:28;;;;;;;9.27;5.93;;;23.80;99.90;;;;;;4988270;28;20300;-72
2023/06/10 09:02:56;;;;;;;6.95;5.82;;;23.90;99.90;;;;;;4988379;28;20293;-71
2023/06/10 09:05:24;;;;;;;6.75;6.07;;;24.00;99.90;;;;;;4987936;28;20233;-71
2023/06/10 09:07:53;;;;;;;6.95;6.00;;;24.00;99.90;;;;;;4988227;28;20256;-71
2023/06/10 09:10:20;;;;;;;6.82;6.00;;;24.00;99.90;;;;;;4988448;28;20240;-72
2023/06/10 09:12:47;;;;;;;11.32;6.07;;;24.10;99.90;;;;;;4988103;28;20296;-71
2023/06/10 09:15:17;;;;;;;8.68;6.35;;;24.20;99.90;;;;;;4988031;28;20657;-71
2023/06/10 09:17:44;;;;;;;9.45;5.93;;;24.30;99.80;;;;;;4988151;28;20803;-71
2023/06/10 09:20:12;;;;;;;8.65;6.38;;;24.30;99.80;;;;;;4988292;28;20253;-72
2023/06/10 09:22:42;;;;;;;8.45;6.32;;;24.30;99.70;;;;;;4987937;28;20978;-72
2023/06/10 09:25:12;;;;;;;10.32;5.85;;;24.40;99.40;;;;;;4988482;28;20549;-72
2023/06/10 09:27:48;;;;;;;17.35;7.00;;;24.40;99.20;;;;;;4988107;28;20579;-71
2023/06/10 09:30:26;;;;;;;14.55;5.90;;;24.40;99.10;;;;;;4986582;28;20269;-72
2023/06/10 09:32:55;;;;;;;6.13;5.53;;;24.40;99.00;;;;;;4987963;28;20194;-71
2023/06/10 09:35:23;;;;;;;6.85;6.18;;;24.50;99.00;;;;;;4994933;28;20210;-72
2023/06/10 09:37:53;;;;;;;8.77;5.90;;;24.50;99.10;;;;;;4993119;28;20979;-71
2023/06/10 09:40:20;;;;;;;9.23;5.97;;;24.50;99.00;;;;;;4992504;28;20849;-72
2023/06/10 09:42:53;;;;;;;6.78;5.43;;;24.50;99.10;;;;;;4989761;28;20256;-72
2023/06/10 09:45:20;;;;;;;6.57;5.88;;;24.40;99.40;;;;;;4987942;28;20206;-71
2023/06/10 09:47:47;;;;;;;6.88;6.13;;;24.40;99.20;;;;;;4987807;28;20293;-72
2023/06/10 09:50:14;;;;;;;8.98;5.70;;;24.40;99.10;;;;;;4987600;28;20241;-71
2023/06/10 09:52:41;;;;;;;19.77;7.25;;;24.40;99.00;;;;;;4987597;28;20250;-71
2023/06/10 09:55:11;;;;;;;7.22;6.53;;;24.40;99.20;;;;;;4987796;28;20214;-72
2023/06/10 09:57:39;;;;;;;11.52;6.47;;;24.40;99.30;;;;;;4987938;28;20264;-72
2023/06/10 10:00:07;;;;;;;7.75;6.15;;;24.40;99.40;;;;;;4987355;28;20221;-71
2023/06/10 10:02:46;;;;;;;8.52;6.10;;;24.40;99.70;;;;;;4987375;28;20206;-72
2023/06/10 10:05:14;;;;;;;11.38;6.30;;;24.40;99.60;;;;;;4987059;28;20198;-72
2023/06/10 10:07:41;;;;;;;8.82;6.35;;;24.40;99.70;;;;;;4986096;28;20209;-71
2023/06/10 10:10:10;;;;;;;8.95;5.75;;;24.40;99.30;;;;;;4986927;28;20332;-71
2023/06/10 10:12:39;;;;;;;13.55;6.75;;;24.40;99.20;;;;;;4987010;28;20210;-71
2023/06/10 10:15:08;;;;;;;25.15;7.22;;;24.40;99.30;;;;;;4986985;28;20324;-71
2023/06/10 10:17:38;;;;;;;19.17;6.93;;;24.40;99.30;;;;;;4986494;28;20206;-71
2023/06/10 10:20:07;;;;;;;25.45;7.20;;;24.40;99.20;;;;;;4986972;28;20591;-71
2023/06/10 10:22:39;;;;;;;11.43;6.35;;;24.40;99.10;;;;;;4987086;28;20305;-71
2023/06/10 10:25:12;;;;;;;7.65;5.63;;;24.40;98.90;;;;;;4987121;28;20569;-72
2023/06/10 10:27:47;;;;;;;7.35;5.97;;;24.40;99.00;;;;;;4987164;28;20198;-71
2023/06/10 10:30:16;;;;;;;7.60;6.45;;;24.30;99.00;;;;;;4987060;28;20237;-71
2023/06/10 10:32:52;;;;;;;8.25;6.60;;;24.30;99.00;;;;;;4986778;28;20293;-71
2023/06/10 10:35:23;;;;;;;6.50;5.90;;;24.30;99.20;;;;;;4986580;28;20205;-71
2023/06/10 10:37:53;;;;;;;12.70;6.70;;;24.20;99.20;;;;;;5001609;28;20209;-71
2023/06/10 10:40:22;;;;;;;21.40;6.70;;;24.20;99.20;;;;;;5006277;28;20194;-71
2023/06/10 10:42:50;;;;;;;10.70;6.50;;;24.20;99.20;;;;;;5006004;28;20209;-72
2023/06/10 10:45:17;;;;;;;10.15;6.72;;;24.10;99.30;;;;;;5006652;28;20306;-71
2023/06/10 10:47:46;;;;;;;10.52;6.55;;;24.10;99.50;;;;;;4993186;28;20301;-71
2023/06/10 10:50:16;;;;;;;9.50;6.47;;;24.10;99.80;;;;;;4986686;28;20314;-71
2023/06/10 10:52:55;;;;;;;7.03;5.55;;;24.00;99.90;;;;;;4986633;28;20324;-71
2023/06/10 10:55:24;;;;;;;11.10;6.72;;;23.90;99.90;;;;;;4987047;28;20269;-71
2023/06/10 10:57:58;;;;;;;8.90;5.68;;;23.80;99.90;;;;;;4986379;28;20269;-72
2023/06/10 11:00:30;;;;;;;8.43;5.53;;;23.70;99.90;;;;;;4986225;28;20312;-73
2023/06/10 11:03:00;;;;;;;6.00;5.28;;;23.70;99.90;;;;;;4986137;28;20221;-73
2023/06/10 11:05:38;;;;;;;7.88;5.95;;;23.70;99.90;;;;;;4986889;28;20198;-73
2023/06/10 11:08:05;;;;;;;11.23;5.80;;;23.70;99.90;;;;;;4986719;28;20197;-75
2023/06/10 11:10:34;;;;;;;7.03;5.45;;;23.60;99.90;;;;;;4986489;28;20242;-73
2023/06/10 11:13:06;;;;;;;6.07;5.55;;;23.60;99.90;;;;;;4986316;28;20319;-73
2023/06/10 11:15:33;;;;;;;6.18;5.57;;;23.60;99.90;;;;;;4986390;28;20608;-73
2023/06/10 11:18:14;;;;;;;6.15;5.55;;;23.70;99.90;;;;;;4986709;28;20205;-73
2023/06/10 11:20:54;;;;;;;10.10;5.65;;;23.60;99.90;;;;;;4985749;28;20208;-73
2023/06/10 11:23:40;;;;;;;8.98;5.03;;;23.50;99.90;;;;;;4986199;28;20198;-73
2023/06/10 11:26:13;;;;;;;108.03;11.93;;;23.50;99.90;;;;;;4986023;28;20863;-73
2023/06/10 11:28:40;;;;;;;32.97;8.00;;;23.60;99.90;;;;;;4998682;28;20288;-73
2023/06/10 11:31:07;;;;;;;6.95;4.97;;;23.70;99.90;;;;;;4985883;28;20202;-73
2023/06/10 11:33:35;;;;;;;5.13;4.40;;;23.80;99.90;;;;;;4986135;28;20232;-73
2023/06/10 11:36:02;;;;;;;6.82;4.78;;;23.90;99.90;;;;;;4985890;28;20209;-73
2023/06/10 11:38:29;;;;;;;5.18;4.70;;;24.00;99.70;;;;;;4986542;28;20289;-73
2023/06/10 11:40:57;;;;;;;5.18;4.78;;;24.00;99.30;;;;;;4986530;28;20237;-73
2023/06/10 11:43:25;;;;;;;4.95;4.45;;;24.00;98.80;;;;;;4986092;28;20629;-73
2023/06/10 11:45:56;;;;;;;5.43;4.80;;;24.10;98.40;;;;;;4985822;28;20221;-73
2023/06/10 11:48:22;;;;;;;5.22;4.70;;;24.20;98.50;;;;;;4984859;28;20736;-73
2023/06/10 11:50:49;;;;;;;5.45;4.85;;;24.30;98.60;;;;;;4986055;28;20330;-73
2023/06/10 11:53:17;;;;;;;5.20;4.70;;;24.40;98.70;;;;;;4986889;28;20280;-73
2023/06/10 11:55:46;;;;;;;6.25;4.88;;;24.40;98.60;;;;;;4989763;28;20293;-73
2023/06/10 11:58:15;;;;;;;4.78;4.38;;;24.60;98.40;;;;;;4989880;28;20300;-73
2023/06/10 12:00:47;;;;;;;5.18;4.68;;;24.70;98.30;;;;;;4989410;28;20233;-73
2023/06/10 12:03:14;;;;;;;6.82;4.90;;;24.80;98.10;;;;;;4990078;28;20274;-73
2023/06/10 12:05:41;;;;;;;5.55;5.03;;;24.90;98.00;;;;;;4989581;28;20329;-73
2023/06/10 12:08:12;;;;;;;5.05;4.55;;;25.00;97.80;;;;;;4989664;28;20290;-73
2023/06/10 12:10:41;;;;;;;6.10;4.97;;;25.10;97.40;;;;;;4989001;28;20603;-73
2023/06/10 12:13:09;;;;;;;5.13;4.63;;;25.20;97.20;;;;;;4989551;28;20210;-73
2023/06/10 12:15:36;;;;;;;9.63;5.28;;;25.40;97.10;;;;;;4988905;28;20664;-73
2023/06/10 12:18:04;;;;;;;4.95;4.45;;;25.40;97.10;;;;;;4989078;28;20206;-73
2023/06/10 12:20:33;;;;;;;6.10;4.97;;;25.50;97.10;;;;;;4989094;28;20676;-73
2023/06/10 12:23:01;;;;;;;4.68;4.28;;;25.50;97.00;;;;;;4989134;28;20676;-73
2023/06/10 12:25:30;;;;;;;8.82;5.00;;;25.50;96.90;;;;;;4996578;28;20210;-73
2023/06/10 12:27:58;;;;;;;5.00;4.60;;;25.50;96.90;;;;;;4989674;28;20210;-73
2023/06/10 12:30:26;;;;;;;5.00;4.50;;;25.50;96.70;;;;;;4989232;28;20345;-73
2023/06/10 12:32:53;;;;;;;4.90;4.50;;;25.40;96.80;;;;;;4989397;28;20241;-73
2023/06/10 12:35:24;;;;;;;6.00;5.22;;;25.60;97.00;;;;;;4989503;28;20217;-73
2023/06/10 12:37:59;;;;;;;8.60;4.88;;;26.00;96.90;;;;;;4989042;28;20225;-73
2023/06/10 12:40:31;;;;;;;7.90;5.38;;;26.40;96.50;;;;;;4988931;28;20253;-73
2023/06/10 12:42:58;;;;;;;21.88;5.28;;;26.80;96.60;;;;;;4988706;28;20212;-73
2023/06/10 12:45:29;;;;;;;6.32;5.00;;;27.20;96.40;;;;;;4988177;28;20201;-73
2023/06/10 12:48:07;;;;;;;6.13;4.90;;;27.60;96.00;;;;;;4988878;28;20622;-73
2023/06/10 12:50:36;;;;;;;8.20;5.90;;;27.90;95.70;;;;;;4988452;28;20230;-73